createdAt,value
2022-08-04T00:00:58.943Z,59.18
2022-08-04T00:03:34.562Z,59.57
2022-08-04T00:06:10.430Z,59.50
2022-08-04T00:08:44.528Z,59.91
2022-08-04T00:11:16.647Z,60.49
2022-08-04T00:14:02.580Z,60.49
2022-08-04T00:16:37.719Z,60.30
2022-08-04T00:19:18.680Z,61.05
2022-08-04T00:21:51.258Z,61.08
2022-08-04T00:24:22.076Z,60.97
2022-08-04T00:26:50.169Z,61.23
2022-08-04T00:29:18.247Z,61.29
2022-08-04T00:31:56.442Z,61.79
2022-08-04T00:34:29.744Z,61.69
2022-08-04T00:36:59.333Z,62.19
2022-08-04T00:39:28.636Z,62.21
2022-08-04T00:42:26.466Z,62.65
2022-08-04T00:45:09.036Z,62.96
2022-08-04T00:47:51.494Z,62.33
2022-08-04T00:50:29.511Z,61.75
2022-08-04T00:53:11.235Z,60.90
2022-08-04T00:55:59.079Z,60.09
2022-08-04T00:58:51.671Z,59.37
2022-08-04T01:01:33.153Z,58.87
2022-08-04T01:04:11.272Z,58.90
2022-08-04T01:06:56.170Z,58.28
2022-08-04T01:09:42.060Z,58.49
2022-08-04T01:12:33.374Z,59.05
2022-08-04T01:15:07.619Z,59.47
2022-08-04T01:17:46.954Z,59.94
2022-08-04T01:20:21.554Z,60.65
2022-08-04T01:23:34.709Z,61.54
2022-08-04T01:26:53.719Z,61.31
2022-08-04T01:29:46.630Z,61.21
2022-08-04T01:32:25.635Z,61.39
2022-08-04T01:35:02.065Z,61.50
2022-08-04T01:37:49.129Z,63.25
2022-08-04T01:40:18.687Z,63.51
2022-08-04T01:42:47.529Z,63.75
2022-08-04T01:45:20.143Z,64.79
2022-08-04T01:47:51.769Z,64.89
2022-08-04T01:50:21.669Z,64.75
2022-08-04T01:54:35.122Z,65.03
2022-08-04T01:57:38.666Z,66.18
2022-08-04T01:59:56.319Z,66.05
2022-08-04T02:02:26.866Z,66.67
2022-08-04T02:04:57.284Z,67.40
2022-08-04T02:07:51.782Z,67.97
2022-08-04T02:10:28.956Z,67.61
2022-08-04T02:13:07.721Z,67.78
2022-08-04T02:15:46.295Z,67.98
2022-08-04T02:18:24.242Z,68.09
2022-08-04T02:20:58.884Z,68.44
2022-08-04T02:23:32.737Z,68.22
2022-08-04T02:26:05.730Z,68.13
2022-08-04T02:28:38.998Z,67.98
2022-08-04T02:31:15.729Z,67.86
2022-08-04T02:33:46.219Z,68.32
2022-08-04T02:36:21.623Z,68.69
2022-08-04T02:38:57.318Z,68.48
2022-08-04T02:41:30.984Z,68.64
2022-08-04T02:44:02.661Z,69.14
2022-08-04T02:46:32.662Z,68.83
2022-08-04T02:49:05.238Z,69.18
2022-08-04T02:51:36.376Z,69.60
2022-08-04T02:54:06.343Z,69.89
2022-08-04T02:56:38.704Z,69.37
2022-08-04T02:59:09.401Z,69.75
2022-08-04T03:01:38.157Z,69.58
2022-08-04T03:04:37.166Z,69.63
2022-08-04T03:07:43.950Z,68.81
2022-08-04T03:10:44.293Z,67.11
2022-08-04T03:13:40.883Z,66.45
2022-08-04T03:16:30.024Z,65.14
2022-08-04T03:19:48.944Z,64.73
2022-08-04T03:22:53.758Z,65.84
2022-08-04T03:25:56.746Z,64.93
2022-08-04T03:29:00.810Z,65.75
2022-08-04T03:32:02.884Z,67.31
2022-08-04T03:34:54.270Z,67.11
2022-08-04T03:37:38.190Z,67.74
2022-08-04T03:40:36.389Z,68.53
2022-08-04T03:43:57.614Z,68.95
2022-08-04T03:46:46.171Z,69.17
2022-08-04T03:49:50.216Z,69.26
2022-08-04T03:53:08.956Z,70.32
2022-08-04T03:56:04.637Z,70.24
2022-08-04T03:59:00.292Z,70.74
2022-08-04T04:02:02.137Z,70.94
2022-08-04T04:04:46.847Z,71.11
2022-08-04T04:08:01.341Z,71.22
2022-08-04T04:10:48.198Z,71.29
2022-08-04T04:13:31.109Z,71.75
2022-08-04T04:16:27.428Z,71.32
2022-08-04T04:19:17.318Z,71.58
2022-08-04T04:22:04.901Z,71.23
2022-08-04T04:25:05.481Z,71.47
2022-08-04T04:27:46.621Z,71.41
2022-08-04T04:30:20.159Z,71.08
2022-08-04T04:33:08.992Z,71.57
2022-08-04T04:35:50.926Z,70.66
2022-08-04T04:38:51.210Z,69.52
2022-08-04T04:41:41.674Z,69.50
2022-08-04T04:44:36.103Z,68.91
2022-08-04T04:47:12.741Z,67.94
2022-08-04T04:49:50.338Z,68.02
2022-08-04T04:52:29.436Z,68.11
2022-08-04T04:55:11.350Z,67.64
2022-08-04T04:57:52.617Z,67.70
2022-08-04T05:00:22.276Z,67.52
2022-08-04T05:03:10.246Z,67.53
2022-08-04T05:06:07.943Z,67.08
2022-08-04T05:09:11.604Z,66.78
2022-08-04T05:14:30.805Z,66.36
2022-08-04T05:15:14.080Z,66.43
2022-08-04T05:17:50.632Z,66.05
2022-08-04T05:20:25.636Z,64.90
2022-08-04T05:22:58.061Z,63.20
2022-08-04T05:25:36.443Z,60.49
2022-08-04T05:28:07.731Z,57.71
2022-08-04T05:30:48.308Z,54.14
2022-08-04T05:33:20.382Z,54.24
2022-08-04T05:36:20.363Z,50.53
2022-08-04T05:38:45.832Z,48.73
2022-08-04T05:41:18.206Z,47.83
2022-08-04T05:43:48.025Z,46.27
2022-08-04T05:46:17.607Z,47.04
2022-08-04T05:48:47.840Z,45.52
2022-08-04T05:51:17.689Z,44.67
2022-08-04T05:53:47.262Z,44.12
2022-08-04T05:56:17.602Z,43.27
2022-08-04T05:58:46.976Z,42.25
2022-08-04T06:01:19.076Z,41.75
2022-08-04T06:03:49.587Z,40.46
2022-08-04T06:06:20.134Z,39.38
2022-08-04T06:08:48.425Z,40.22
2022-08-04T06:11:20.162Z,38.84
2022-08-04T06:13:55.462Z,38.50
2022-08-04T06:16:30.851Z,37.26
2022-08-04T06:20:03.595Z,36.24
2022-08-04T06:21:56.755Z,35.56
2022-08-04T06:24:27.472Z,36.42
2022-08-04T06:26:58.305Z,35.39
2022-08-04T06:29:33.700Z,35.24
2022-08-04T06:32:26.791Z,34.06
2022-08-04T06:35:04.935Z,33.27
2022-08-04T06:37:42.562Z,32.98
2022-08-04T06:40:30.535Z,32.51
2022-08-04T06:43:02.440Z,31.63
2022-08-04T06:45:31.096Z,30.31
2022-08-04T06:48:01.033Z,31.15
2022-08-04T06:51:34.379Z,32.27
2022-08-04T06:55:34.754Z,31.19
2022-08-04T06:58:03.899Z,28.92
2022-08-04T07:00:33.130Z,27.76
2022-08-04T07:03:03.351Z,28.21
2022-08-04T07:05:32.482Z,26.86
2022-08-04T07:08:03.030Z,27.04
2022-08-04T07:10:33.762Z,27.01
2022-08-04T07:13:04.347Z,28.35
2022-08-04T07:15:36.820Z,27.69
2022-08-04T07:18:05.228Z,26.70
2022-08-04T07:20:35.267Z,26.31
2022-08-04T07:23:05.322Z,26.42
2022-08-04T07:26:00.705Z,27.86
2022-08-04T07:28:26.587Z,27.07
2022-08-04T07:30:55.838Z,26.33
2022-08-04T07:33:26.025Z,25.41
2022-08-04T07:36:09.080Z,27.12
2022-08-04T07:38:48.655Z,28.05
2022-08-04T07:41:39.526Z,30.17
2022-08-04T07:44:08.668Z,29.73
2022-08-04T07:46:39.085Z,28.09
2022-08-04T07:49:10.891Z,28.88
2022-08-04T07:51:40.447Z,27.92
2022-08-04T07:54:11.026Z,28.47
2022-08-04T07:56:44.962Z,27.18
2022-08-04T07:59:13.123Z,27.50
2022-08-04T08:01:42.035Z,27.29
2022-08-04T08:04:12.322Z,27.49
2022-08-04T08:06:43.440Z,27.75
2022-08-04T08:09:16.083Z,27.77
2022-08-04T08:12:37.426Z,28.23
2022-08-04T08:14:37.373Z,27.63
2022-08-04T08:17:06.382Z,28.55
2022-08-04T08:19:35.477Z,28.24
2022-08-04T08:22:04.045Z,27.08
2022-08-04T08:24:33.415Z,26.45
2022-08-04T08:27:06.069Z,27.27
2022-08-04T08:29:35.345Z,25.53
2022-08-04T08:32:08.632Z,26.37
2022-08-04T08:34:39.026Z,26.47
2022-08-04T08:37:14.851Z,26.22
2022-08-04T08:39:50.624Z,25.79
2022-08-04T08:42:41.149Z,24.98
2022-08-04T08:45:38.507Z,26.06
2022-08-04T08:48:49.173Z,24.85
2022-08-04T08:51:40.162Z,24.46
2022-08-04T08:54:48.253Z,24.88
2022-08-04T08:57:35.287Z,24.64
2022-08-04T09:00:11.316Z,23.36
2022-08-04T09:03:26.836Z,23.87
2022-08-04T09:06:09.012Z,25.09
2022-08-04T09:08:56.720Z,24.43
2022-08-04T09:11:27.242Z,24.93
2022-08-04T09:13:59.011Z,23.63
2022-08-04T09:16:36.830Z,23.91
2022-08-04T09:19:17.702Z,23.54
2022-08-04T09:22:12.679Z,22.62
2022-08-04T09:24:51.364Z,23.58
2022-08-04T09:27:22.319Z,23.26
2022-08-04T09:30:00.654Z,23.53
2022-08-04T09:32:36.171Z,23.76
2022-08-04T09:35:19.206Z,23.21
2022-08-04T09:38:01.730Z,22.71
2022-08-04T09:40:53.615Z,22.07
2022-08-04T09:44:40.798Z,21.20
2022-08-04T09:46:31.602Z,21.80
2022-08-04T09:49:04.675Z,20.39
2022-08-04T09:51:57.934Z,21.85
2022-08-04T09:54:45.909Z,20.77
2022-08-04T09:57:23.994Z,21.55
2022-08-04T09:59:58.428Z,22.70
2022-08-04T10:02:33.641Z,21.81
2022-08-04T10:05:04.969Z,21.27
2022-08-04T10:08:15.247Z,20.44
2022-08-04T10:10:57.729Z,21.13
2022-08-04T10:13:45.478Z,21.22
2022-08-04T10:16:29.578Z,20.82
2022-08-04T10:19:16.000Z,20.67
2022-08-04T10:22:27.360Z,21.05
2022-08-04T10:25:00.986Z,21.70
2022-08-04T10:27:34.698Z,20.72
2022-08-04T10:30:11.981Z,19.26
2022-08-04T10:32:46.949Z,19.52
2022-08-04T10:35:19.794Z,19.17
2022-08-04T10:38:01.662Z,19.80
2022-08-04T10:40:40.520Z,20.81
2022-08-04T10:43:20.859Z,21.72
2022-08-04T10:46:02.435Z,21.60
2022-08-04T10:48:42.550Z,21.18
2022-08-04T10:51:58.251Z,20.38
2022-08-04T10:54:30.867Z,19.15
2022-08-04T10:57:09.711Z,18.95
2022-08-04T10:59:44.463Z,18.74
2022-08-04T11:02:26.032Z,19.28
2022-08-04T11:05:02.755Z,20.07
2022-08-04T11:07:36.189Z,20.87
2022-08-04T11:10:09.084Z,18.99
2022-08-04T11:12:41.533Z,18.99
2022-08-04T11:15:14.720Z,19.14
2022-08-04T11:17:48.467Z,18.46
2022-08-04T11:20:36.523Z,19.03
2022-08-04T11:23:10.782Z,17.97
2022-08-04T11:25:54.114Z,18.33
2022-08-04T11:28:34.692Z,18.72
2022-08-04T11:31:06.965Z,17.74
2022-08-04T11:33:44.299Z,17.24
2022-08-04T11:36:21.377Z,16.70
2022-08-04T11:38:57.570Z,15.97
2022-08-04T11:41:40.510Z,17.33
2022-08-04T11:44:13.083Z,18.00
2022-08-04T11:46:48.695Z,17.35
2022-08-04T11:49:27.499Z,19.25
2022-08-04T11:51:58.177Z,21.24
2022-08-04T11:56:36.570Z,20.12
2022-08-04T11:59:08.686Z,19.23
2022-08-04T12:01:46.622Z,18.89
2022-08-04T12:04:19.891Z,19.96
2022-08-04T12:07:21.371Z,18.93
2022-08-04T12:09:50.213Z,19.28
2022-08-04T12:12:29.480Z,20.00
2022-08-04T12:15:05.771Z,20.42
2022-08-04T12:17:52.164Z,20.77
2022-08-04T12:20:38.193Z,21.12
2022-08-04T12:23:22.963Z,21.58
2022-08-04T12:25:53.406Z,21.98
2022-08-04T12:28:46.479Z,22.90
2022-08-04T12:31:25.179Z,22.30
2022-08-04T12:34:04.314Z,21.86
2022-08-04T12:36:40.287Z,22.69
2022-08-04T12:39:13.035Z,23.01
2022-08-04T12:41:46.698Z,22.87
2022-08-04T12:44:36.890Z,22.18
2022-08-04T12:47:26.425Z,22.65
2022-08-04T12:50:03.309Z,22.81
2022-08-04T12:53:01.465Z,22.78
2022-08-04T12:55:29.664Z,22.55
2022-08-04T12:57:59.637Z,22.49
2022-08-04T13:00:40.270Z,22.63
2022-08-04T13:03:13.569Z,22.59
2022-08-04T13:05:43.101Z,22.29
2022-08-04T13:08:15.596Z,22.07
2022-08-04T13:10:46.858Z,21.89
2022-08-04T13:13:20.407Z,22.18
2022-08-04T13:16:01.227Z,22.50
2022-08-04T13:18:32.294Z,23.00
2022-08-04T13:21:20.883Z,22.71
2022-08-04T13:24:19.780Z,22.53
2022-08-04T13:27:03.581Z,21.48
2022-08-04T13:29:58.919Z,21.63
2022-08-04T13:32:27.621Z,21.09
2022-08-04T13:34:58.555Z,20.39
2022-08-04T13:37:31.625Z,20.69
2022-08-04T13:40:01.341Z,20.83
2022-08-04T13:42:32.663Z,21.55
2022-08-04T13:45:04.723Z,20.94
2022-08-04T13:47:38.098Z,21.01
2022-08-04T13:50:13.378Z,20.77
2022-08-04T13:52:45.587Z,21.60
2022-08-04T13:55:25.732Z,21.34
2022-08-04T13:58:04.257Z,21.93
2022-08-04T14:00:55.299Z,21.73
2022-08-04T14:03:31.604Z,21.71
2022-08-04T14:06:15.880Z,21.65
2022-08-04T14:08:52.949Z,21.76
2022-08-04T14:12:09.987Z,21.25
2022-08-04T14:14:17.078Z,22.67
2022-08-04T14:17:04.027Z,22.31
2022-08-04T14:19:51.417Z,23.01
2022-08-04T14:22:35.504Z,23.00
2022-08-04T14:25:15.347Z,22.44
2022-08-04T14:27:46.744Z,22.83
2022-08-04T14:30:29.391Z,22.86
2022-08-04T14:34:01.837Z,22.73
2022-08-04T14:36:04.379Z,22.82
2022-08-04T14:38:45.013Z,23.08
2022-08-04T14:41:14.381Z,22.98
2022-08-04T14:43:48.081Z,22.08
2022-08-04T14:46:17.459Z,22.49
2022-08-04T14:49:03.654Z,22.09
2022-08-04T14:51:41.675Z,22.59
2022-08-04T14:54:18.070Z,22.92
2022-08-04T14:56:54.466Z,23.16
2022-08-04T14:59:23.393Z,24.10
2022-08-04T15:02:01.113Z,24.26
2022-08-04T15:04:31.498Z,24.34
2022-08-04T15:07:04.550Z,24.31
2022-08-04T15:09:33.889Z,24.59
2022-08-04T15:12:07.194Z,23.87
2022-08-04T15:14:38.211Z,22.93
2022-08-04T15:17:12.375Z,23.02
2022-08-04T15:19:56.923Z,22.88
2022-08-04T15:22:26.551Z,22.92
2022-08-04T15:24:56.063Z,23.65
2022-08-04T15:27:27.769Z,23.92
2022-08-04T15:30:02.080Z,24.09
2022-08-04T15:32:36.778Z,23.75
2022-08-04T15:35:09.606Z,24.04
2022-08-04T15:37:47.491Z,24.01
2022-08-04T15:40:32.860Z,22.47
2022-08-04T15:43:12.312Z,22.25
2022-08-04T15:46:43.574Z,23.30
2022-08-04T15:48:40.578Z,23.23
2022-08-04T15:51:14.327Z,23.16
2022-08-04T15:54:29.222Z,24.15
2022-08-04T15:57:03.509Z,24.11
2022-08-04T15:59:58.531Z,24.35
2022-08-04T16:02:36.595Z,23.40
2022-08-04T16:05:35.607Z,24.01
2022-08-04T16:08:17.638Z,23.66
2022-08-04T16:10:50.702Z,24.52
2022-08-04T16:13:21.451Z,24.23
2022-08-04T16:15:54.087Z,24.08
2022-08-04T16:18:40.685Z,23.27
2022-08-04T16:21:20.756Z,23.83
2022-08-04T16:24:02.307Z,23.22
2022-08-04T16:26:57.252Z,24.09
2022-08-04T16:29:30.776Z,23.97
2022-08-04T16:32:19.718Z,23.94
2022-08-04T16:35:00.033Z,23.25
2022-08-04T16:37:37.650Z,23.62
2022-08-04T16:40:34.680Z,24.15
2022-08-04T16:43:08.369Z,23.56
2022-08-04T16:45:48.272Z,23.92
2022-08-04T16:48:18.515Z,24.44
2022-08-04T16:50:49.546Z,24.13
2022-08-04T16:53:53.282Z,24.30
2022-08-04T16:57:37.030Z,24.64
2022-08-04T17:00:08.516Z,25.31
2022-08-04T17:02:39.418Z,25.88
2022-08-04T17:05:38.907Z,24.96
2022-08-04T17:10:59.201Z,25.54
2022-08-04T17:14:02.707Z,25.91
2022-08-04T17:16:23.507Z,26.45
2022-08-04T17:18:54.105Z,26.63
2022-08-04T17:21:25.322Z,27.02
2022-08-04T17:24:15.195Z,26.06
2022-08-04T17:26:45.183Z,26.51
2022-08-04T17:29:21.734Z,26.28
2022-08-04T17:31:53.327Z,26.16
2022-08-04T17:34:21.966Z,26.59
2022-08-04T17:37:17.730Z,26.46
2022-08-04T17:39:45.683Z,26.64
2022-08-04T17:42:30.027Z,26.89
2022-08-04T17:45:49.094Z,26.97
2022-08-04T17:47:59.185Z,27.12
2022-08-04T17:50:34.845Z,27.46
2022-08-04T17:53:11.202Z,27.89
2022-08-04T17:55:43.948Z,27.74
2022-08-04T17:58:21.082Z,27.87
2022-08-04T18:03:51.768Z,28.63
2022-08-04T18:06:23.322Z,28.67
2022-08-04T18:08:58.062Z,28.07
2022-08-04T18:11:41.953Z,28.42
2022-08-04T18:14:11.261Z,29.12
2022-08-04T18:16:47.389Z,29.32
2022-08-04T18:19:18.988Z,29.12
2022-08-04T18:21:59.251Z,28.99
2022-08-04T18:24:35.811Z,29.60
2022-08-04T18:27:22.439Z,30.80
2022-08-04T18:30:33.376Z,30.17
2022-08-04T18:33:24.287Z,29.02
2022-08-04T18:36:32.751Z,27.11
2022-08-04T18:38:24.333Z,26.74
2022-08-04T18:40:58.482Z,26.26
2022-08-04T18:43:28.364Z,26.47
2022-08-04T18:46:14.356Z,26.55
2022-08-04T18:48:45.198Z,27.11
2022-08-04T18:51:23.748Z,27.53
2022-08-04T18:53:58.869Z,27.15
2022-08-04T18:59:17.046Z,26.62
2022-08-04T19:02:15.933Z,26.59
2022-08-04T19:04:37.439Z,26.64
2022-08-04T19:07:29.289Z,26.81
2022-08-04T19:09:57.615Z,26.78
2022-08-04T19:12:32.866Z,27.13
2022-08-04T19:15:08.883Z,27.26
2022-08-04T19:17:53.830Z,27.37
2022-08-04T19:20:29.866Z,26.92
2022-08-04T19:24:26.897Z,26.74
2022-08-04T19:26:02.783Z,26.65
2022-08-04T19:28:37.166Z,26.49
2022-08-04T19:31:06.355Z,26.85
2022-08-04T19:33:59.021Z,27.54
2022-08-04T19:36:29.613Z,27.50
2022-08-04T19:39:00.975Z,27.82
2022-08-04T19:41:33.810Z,28.28
2022-08-04T19:48:16.689Z,28.18
2022-08-04T19:50:04.507Z,28.85
2022-08-04T19:52:51.533Z,28.90
2022-08-04T19:55:22.235Z,28.88
2022-08-04T19:57:53.303Z,28.98
2022-08-04T20:00:33.758Z,29.50
2022-08-04T20:03:11.581Z,29.73
2022-08-04T20:05:55.390Z,29.57
2022-08-04T20:08:28.189Z,29.79
2022-08-04T20:10:56.460Z,30.46
2022-08-04T20:13:33.849Z,30.11
2022-08-04T20:16:14.934Z,30.37
2022-08-04T20:19:00.945Z,30.72
2022-08-04T20:21:53.468Z,31.21
2022-08-04T20:24:37.824Z,31.28
2022-08-04T20:27:14.583Z,31.24
2022-08-04T20:29:48.534Z,31.81
2022-08-04T20:32:19.799Z,31.76
2022-08-04T20:34:51.961Z,32.11
2022-08-04T20:37:23.009Z,32.12
2022-08-04T20:39:56.426Z,32.59
2022-08-04T20:42:27.886Z,32.32
2022-08-04T20:45:05.740Z,32.60
2022-08-04T20:47:35.436Z,32.86
2022-08-04T20:52:56.492Z,33.16
2022-08-04T20:55:29.698Z,33.50
2022-08-04T20:58:02.478Z,33.73
2022-08-04T21:00:32.184Z,33.86
2022-08-04T21:03:00.637Z,33.99
2022-08-04T21:05:31.526Z,34.18
2022-08-04T21:08:00.072Z,34.45
2022-08-04T21:10:29.904Z,34.47
2022-08-04T21:12:57.979Z,34.91
2022-08-04T21:15:57.832Z,35.12
2022-08-04T21:18:16.832Z,35.93
2022-08-04T21:20:48.030Z,36.11
2022-08-04T21:23:16.543Z,36.67
2022-08-04T21:25:50.913Z,36.95
2022-08-04T21:31:11.396Z,37.41
2022-08-04T21:36:39.288Z,37.64
2022-08-04T21:39:07.575Z,37.80
2022-08-04T21:42:19.745Z,37.79
2022-08-04T21:44:31.469Z,38.28
2022-08-04T21:47:00.604Z,38.35
2022-08-04T21:49:28.615Z,38.47
2022-08-04T21:52:00.347Z,38.63
2022-08-04T21:54:29.494Z,38.75
2022-08-04T21:58:33.598Z,38.81
2022-08-04T22:01:05.893Z,39.01
2022-08-04T22:03:52.417Z,39.79
2022-08-04T22:06:28.343Z,40.28
2022-08-04T22:08:58.343Z,39.97
2022-08-04T22:11:48.830Z,40.85
2022-08-04T22:14:27.297Z,41.10
2022-08-04T22:16:58.633Z,42.23
2022-08-04T22:19:50.070Z,42.87
2022-08-04T22:22:25.397Z,43.57
2022-08-04T22:24:58.904Z,43.98
2022-08-04T22:27:47.705Z,44.92
2022-08-04T22:30:29.258Z,45.92
2022-08-04T22:33:02.108Z,46.55
2022-08-04T22:35:36.266Z,46.77
2022-08-04T22:38:27.979Z,46.94
2022-08-04T22:41:07.031Z,47.27
2022-08-04T22:43:36.230Z,47.74
2022-08-04T22:46:21.294Z,47.78
2022-08-04T22:48:50.266Z,48.07
2022-08-04T22:51:19.059Z,48.59
2022-08-04T22:53:48.973Z,48.77
2022-08-04T22:56:37.278Z,49.03
2022-08-04T22:59:05.563Z,49.15
2022-08-04T23:01:58.947Z,49.33
2022-08-04T23:04:25.602Z,49.45
2022-08-04T23:06:54.322Z,49.17
2022-08-04T23:09:49.013Z,49.38
2022-08-04T23:12:27.814Z,49.80
2022-08-04T23:14:59.916Z,49.70
2022-08-04T23:17:43.714Z,50.23
2022-08-04T23:20:23.326Z,50.61
2022-08-04T23:22:55.657Z,50.82
2022-08-04T23:25:32.955Z,50.71
2022-08-04T23:28:19.773Z,51.53
2022-08-04T23:30:48.735Z,51.39
2022-08-04T23:33:49.343Z,52.03
2022-08-04T23:36:29.608Z,52.24
2022-08-04T23:39:17.414Z,52.12
2022-08-04T23:41:53.888Z,52.21
2022-08-04T23:44:31.662Z,52.64
2022-08-04T23:48:15.738Z,53.51
2022-08-04T23:50:09.418Z,54.42
2022-08-04T23:52:37.525Z,54.50
2022-08-04T23:55:24.762Z,54.90
2022-08-04T23:58:20.941Z,55.08
